sensor_id;sensor_type;location;lat;lon;timestamp;temperature;humidity
73665;DHT22;61964;52.052;4.474;2023-11-21T00:01:58;9.19;84.55
73665;DHT22;61964;52.052;4.474;2023-11-21T00:04:24;9.24;84.46
73665;DHT22;61964;52.052;4.474;2023-11-21T00:06:50;9.25;84.48
73665;DHT22;61964;52.052;4.474;2023-11-21T00:09:16;9.32;84.45
73665;DHT22;61964;52.052;4.474;2023-11-21T00:11:43;9.38;84.46
73665;DHT22;61964;52.052;4.474;2023-11-21T00:14:25;9.45;84.45
73665;DHT22;61964;52.052;4.474;2023-11-21T00:16:51;9.52;84.44
73665;DHT22;61964;52.052;4.474;2023-11-21T00:19:16;9.59;84.41
73665;DHT22;61964;52.052;4.474;2023-11-21T00:24:24;9.66;84.39
73665;DHT22;61964;52.052;4.474;2023-11-21T00:26:51;9.72;84.33
73665;DHT22;61964;52.052;4.474;2023-11-21T00:29:17;9.75;84.28
73665;DHT22;61964;52.052;4.474;2023-11-21T00:31:44;9.80;84.31
73665;DHT22;61964;52.052;4.474;2023-11-21T00:34:13;9.85;84.25
73665;DHT22;61964;52.052;4.474;2023-11-21T00:36:40;9.85;84.26
73665;DHT22;61964;52.052;4.474;2023-11-21T00:39:06;9.90;84.19
73665;DHT22;61964;52.052;4.474;2023-11-21T00:41:32;9.93;84.21
73665;DHT22;61964;52.052;4.474;2023-11-21T00:44:04;9.96;84.13
73665;DHT22;61964;52.052;4.474;2023-11-21T00:46:42;9.93;84.19
73665;DHT22;61964;52.052;4.474;2023-11-21T00:49:07;10.01;84.22
73665;DHT22;61964;52.052;4.474;2023-11-21T00:51:33;10.06;84.14
73665;DHT22;61964;52.052;4.474;2023-11-21T00:53:59;10.07;84.25
73665;DHT22;61964;52.052;4.474;2023-11-21T00:56:26;10.10;84.10
73665;DHT22;61964;52.052;4.474;2023-11-21T00:58:51;10.14;84.18
73665;DHT22;61964;52.052;4.474;2023-11-21T01:01:21;10.13;84.09
73665;DHT22;61964;52.052;4.474;2023-11-21T01:03:50;10.14;84.15
73665;DHT22;61964;52.052;4.474;2023-11-21T01:06:16;10.16;84.03
73665;DHT22;61964;52.052;4.474;2023-11-21T01:08:44;10.17;84.05
73665;DHT22;61964;52.052;4.474;2023-11-21T01:11:10;10.22;84.14
73665;DHT22;61964;52.052;4.474;2023-11-21T01:13:41;10.25;84.06
73665;DHT22;61964;52.052;4.474;2023-11-21T01:16:08;10.27;84.12
73665;DHT22;61964;52.052;4.474;2023-11-21T01:18:35;10.28;84.15
73665;DHT22;61964;52.052;4.474;2023-11-21T01:21:01;10.33;84.04
73665;DHT22;61964;52.052;4.474;2023-11-21T01:23:27;10.34;83.92
73665;DHT22;61964;52.052;4.474;2023-11-21T01:25:54;10.34;83.84
73665;DHT22;61964;52.052;4.474;2023-11-21T01:28:20;10.33;83.91
73665;DHT22;61964;52.052;4.474;2023-11-21T01:30:46;10.34;83.95
73665;DHT22;61964;52.052;4.474;2023-11-21T01:33:12;10.36;83.96
73665;DHT22;61964;52.052;4.474;2023-11-21T01:35:38;10.34;84.06
73665;DHT22;61964;52.052;4.474;2023-11-21T01:38:04;10.34;83.94
73665;DHT22;61964;52.052;4.474;2023-11-21T01:40:30;10.33;84.02
73665;DHT22;61964;52.052;4.474;2023-11-21T01:42:56;10.34;84.10
73665;DHT22;61964;52.052;4.474;2023-11-21T01:45:23;10.34;84.06
73665;DHT22;61964;52.052;4.474;2023-11-21T01:47:51;10.37;84.09
73665;DHT22;61964;52.052;4.474;2023-11-21T01:50:18;10.40;84.01
73665;DHT22;61964;52.052;4.474;2023-11-21T01:52:46;10.42;83.96
73665;DHT22;61964;52.052;4.474;2023-11-21T01:55:15;10.41;83.91
73665;DHT22;61964;52.052;4.474;2023-11-21T01:57:45;10.40;83.99
73665;DHT22;61964;52.052;4.474;2023-11-21T02:00:13;10.41;84.01
73665;DHT22;61964;52.052;4.474;2023-11-21T02:02:46;10.42;84.07
73665;DHT22;61964;52.052;4.474;2023-11-21T02:05:15;10.45;84.06
73665;DHT22;61964;52.052;4.474;2023-11-21T02:07:44;10.51;84.03
73665;DHT22;61964;52.052;4.474;2023-11-21T02:10:11;10.51;83.98
73665;DHT22;61964;52.052;4.474;2023-11-21T02:12:41;10.52;83.87
73665;DHT22;61964;52.052;4.474;2023-11-21T02:15:12;10.51;83.83
73665;DHT22;61964;52.052;4.474;2023-11-21T02:17:42;10.47;83.77
73665;DHT22;61964;52.052;4.474;2023-11-21T02:20:12;10.42;84.04
73665;DHT22;61964;52.052;4.474;2023-11-21T02:22:41;10.47;84.09
73665;DHT22;61964;52.052;4.474;2023-11-21T02:25:08;10.48;84.11
73665;DHT22;61964;52.052;4.474;2023-11-21T02:27:34;10.51;84.19
73665;DHT22;61964;52.052;4.474;2023-11-21T02:30:00;10.55;84.17
73665;DHT22;61964;52.052;4.474;2023-11-21T02:32:26;10.58;84.18
73665;DHT22;61964;52.052;4.474;2023-11-21T02:34:52;10.62;84.13
73665;DHT22;61964;52.052;4.474;2023-11-21T02:37:21;10.64;84.15
73665;DHT22;61964;52.052;4.474;2023-11-21T02:39:47;10.71;84.19
73665;DHT22;61964;52.052;4.474;2023-11-21T02:42:13;10.72;84.16
73665;DHT22;61964;52.052;4.474;2023-11-21T02:44:38;10.75;84.23
73665;DHT22;61964;52.052;4.474;2023-11-21T02:47:04;10.82;84.22
73665;DHT22;61964;52.052;4.474;2023-11-21T02:49:30;10.81;84.14
73665;DHT22;61964;52.052;4.474;2023-11-21T02:51:56;10.81;84.16
73665;DHT22;61964;52.052;4.474;2023-11-21T02:54:22;10.88;84.15
73665;DHT22;61964;52.052;4.474;2023-11-21T02:56:48;10.89;84.11
73665;DHT22;61964;52.052;4.474;2023-11-21T02:59:15;10.93;84.09
73665;DHT22;61964;52.052;4.474;2023-11-21T03:01:41;10.95;84.05
73665;DHT22;61964;52.052;4.474;2023-11-21T03:04:07;10.91;84.05
73665;DHT22;61964;52.052;4.474;2023-11-21T03:06:33;10.93;84.19
73665;DHT22;61964;52.052;4.474;2023-11-21T03:08:59;11.00;84.17
73665;DHT22;61964;52.052;4.474;2023-11-21T03:11:25;11.08;84.01
73665;DHT22;61964;52.052;4.474;2023-11-21T03:13:51;11.00;84.09
73665;DHT22;61964;52.052;4.474;2023-11-21T03:16:17;11.05;84.26
73665;DHT22;61964;52.052;4.474;2023-11-21T03:18:44;11.03;84.18
73665;DHT22;61964;52.052;4.474;2023-11-21T03:21:11;10.98;84.18
73665;DHT22;61964;52.052;4.474;2023-11-21T03:23:38;11.00;84.36
73665;DHT22;61964;52.052;4.474;2023-11-21T03:26:04;11.05;84.26
73665;DHT22;61964;52.052;4.474;2023-11-21T03:28:30;11.06;84.25
73665;DHT22;61964;52.052;4.474;2023-11-21T03:30:56;11.03;84.13
73665;DHT22;61964;52.052;4.474;2023-11-21T03:33:22;11.05;84.14
73665;DHT22;61964;52.052;4.474;2023-11-21T03:35:48;11.03;84.16
73665;DHT22;61964;52.052;4.474;2023-11-21T03:38:15;11.05;84.18
73665;DHT22;61964;52.052;4.474;2023-11-21T03:40:41;11.03;84.18
73665;DHT22;61964;52.052;4.474;2023-11-21T03:43:07;11.03;84.28
73665;DHT22;61964;52.052;4.474;2023-11-21T03:45:33;11.02;84.23
73665;DHT22;61964;52.052;4.474;2023-11-21T03:47:59;11.06;84.32
73665;DHT22;61964;52.052;4.474;2023-11-21T03:50:28;11.08;84.34
73665;DHT22;61964;52.052;4.474;2023-11-21T03:52:54;11.08;84.28
73665;DHT22;61964;52.052;4.474;2023-11-21T03:55:20;11.10;84.29
73665;DHT22;61964;52.052;4.474;2023-11-21T03:57:46;11.12;84.28
73665;DHT22;61964;52.052;4.474;2023-11-21T04:00:12;11.12;84.42
73665;DHT22;61964;52.052;4.474;2023-11-21T04:02:38;11.15;84.35
73665;DHT22;61964;52.052;4.474;2023-11-21T04:05:05;11.19;84.30
73665;DHT22;61964;52.052;4.474;2023-11-21T04:07:32;11.19;84.26
73665;DHT22;61964;52.052;4.474;2023-11-21T04:09:59;11.16;84.24
73665;DHT22;61964;52.052;4.474;2023-11-21T04:12:25;11.19;84.31
73665;DHT22;61964;52.052;4.474;2023-11-21T04:14:50;11.20;84.24
73665;DHT22;61964;52.052;4.474;2023-11-21T04:17:19;11.19;84.33
73665;DHT22;61964;52.052;4.474;2023-11-21T04:19:46;11.27;84.21
73665;DHT22;61964;52.052;4.474;2023-11-21T04:22:12;11.23;84.45
73665;DHT22;61964;52.052;4.474;2023-11-21T04:24:38;11.20;84.44
73665;DHT22;61964;52.052;4.474;2023-11-21T04:27:04;11.22;84.62
73665;DHT22;61964;52.052;4.474;2023-11-21T04:29:29;11.26;84.58
73665;DHT22;61964;52.052;4.474;2023-11-21T04:31:55;11.31;84.64
73665;DHT22;61964;52.052;4.474;2023-11-21T04:34:21;11.30;84.64
73665;DHT22;61964;52.052;4.474;2023-11-21T04:36:47;11.31;84.64
73665;DHT22;61964;52.052;4.474;2023-11-21T04:39:12;11.27;84.66
73665;DHT22;61964;52.052;4.474;2023-11-21T04:41:38;11.29;84.56
73665;DHT22;61964;52.052;4.474;2023-11-21T04:44:08;11.26;84.52
73665;DHT22;61964;52.052;4.474;2023-11-21T04:46:34;11.27;84.48
73665;DHT22;61964;52.052;4.474;2023-11-21T04:48:59;11.30;84.52
73665;DHT22;61964;52.052;4.474;2023-11-21T04:51:25;11.27;84.51
73665;DHT22;61964;52.052;4.474;2023-11-21T04:53:51;11.26;84.45
73665;DHT22;61964;52.052;4.474;2023-11-21T04:56:17;11.24;84.41
73665;DHT22;61964;52.052;4.474;2023-11-21T04:58:42;11.22;84.32
73665;DHT22;61964;52.052;4.474;2023-11-21T05:01:08;11.18;84.22
73665;DHT22;61964;52.052;4.474;2023-11-21T05:03:35;11.08;84.04
73665;DHT22;61964;52.052;4.474;2023-11-21T05:06:00;10.98;83.86
73665;DHT22;61964;52.052;4.474;2023-11-21T05:08:26;10.89;83.74
73665;DHT22;61964;52.052;4.474;2023-11-21T05:10:52;10.76;83.68
73665;DHT22;61964;52.052;4.474;2023-11-21T05:13:20;10.68;83.63
73665;DHT22;61964;52.052;4.474;2023-11-21T05:15:46;10.62;83.83
73665;DHT22;61964;52.052;4.474;2023-11-21T05:18:12;10.57;84.11
73665;DHT22;61964;52.052;4.474;2023-11-21T05:20:39;10.59;84.24
73665;DHT22;61964;52.052;4.474;2023-11-21T05:23:07;10.58;84.32
73665;DHT22;61964;52.052;4.474;2023-11-21T05:25:34;10.58;84.17
73665;DHT22;61964;52.052;4.474;2023-11-21T05:28:00;10.51;84.10
73665;DHT22;61964;52.052;4.474;2023-11-21T05:30:27;10.49;84.04
73665;DHT22;61964;52.052;4.474;2023-11-21T05:32:53;10.44;84.42
73665;DHT22;61964;52.052;4.474;2023-11-21T05:35:34;10.45;84.81
73665;DHT22;61964;52.052;4.474;2023-11-21T05:37:59;10.48;84.96
73665;DHT22;61964;52.052;4.474;2023-11-21T05:40:25;10.59;85.20
73665;DHT22;61964;52.052;4.474;2023-11-21T05:42:54;10.68;85.60
73665;DHT22;61964;52.052;4.474;2023-11-21T05:45:21;10.81;85.66
73665;DHT22;61964;52.052;4.474;2023-11-21T05:47:47;10.86;85.57
73665;DHT22;61964;52.052;4.474;2023-11-21T05:50:15;10.91;85.40
73665;DHT22;61964;52.052;4.474;2023-11-21T05:52:43;10.99;85.35
73665;DHT22;61964;52.052;4.474;2023-11-21T05:55:09;11.10;85.36
73665;DHT22;61964;52.052;4.474;2023-11-21T05:57:40;11.16;85.71
73665;DHT22;61964;52.052;4.474;2023-11-21T06:00:09;11.24;85.84
73665;DHT22;61964;52.052;4.474;2023-11-21T06:02:56;11.33;85.59
73665;DHT22;61964;52.052;4.474;2023-11-21T06:05:24;11.39;85.50
73665;DHT22;61964;52.052;4.474;2023-11-21T06:07:51;11.47;85.31
73665;DHT22;61964;52.052;4.474;2023-11-21T06:10:20;11.47;85.41
73665;DHT22;61964;52.052;4.474;2023-11-21T06:12:46;11.54;85.42
73665;DHT22;61964;52.052;4.474;2023-11-21T06:15:12;11.60;85.32
73665;DHT22;61964;52.052;4.474;2023-11-21T06:17:42;11.60;85.28
73665;DHT22;61964;52.052;4.474;2023-11-21T06:20:10;11.60;85.21
73665;DHT22;61964;52.052;4.474;2023-11-21T06:22:43;11.60;84.73
73665;DHT22;61964;52.052;4.474;2023-11-21T06:25:09;11.49;84.58
73665;DHT22;61964;52.052;4.474;2023-11-21T06:27:46;11.43;84.55
73665;DHT22;61964;52.052;4.474;2023-11-21T06:30:14;11.36;84.63
73665;DHT22;61964;52.052;4.474;2023-11-21T06:32:41;11.29;84.64
73665;DHT22;61964;52.052;4.474;2023-11-21T06:35:22;11.30;84.71
73665;DHT22;61964;52.052;4.474;2023-11-21T06:37:48;11.23;84.96
73665;DHT22;61964;52.052;4.474;2023-11-21T06:40:14;11.19;84.71
73665;DHT22;61964;52.052;4.474;2023-11-21T06:42:44;11.12;84.44
73665;DHT22;61964;52.052;4.474;2023-11-21T06:45:10;11.05;84.35
73665;DHT22;61964;52.052;4.474;2023-11-21T06:47:37;10.98;84.31
73665;DHT22;61964;52.052;4.474;2023-11-21T06:50:03;10.92;84.49
73665;DHT22;61964;52.052;4.474;2023-11-21T06:52:29;10.95;84.86
73665;DHT22;61964;52.052;4.474;2023-11-21T06:54:55;10.99;85.05
73665;DHT22;61964;52.052;4.474;2023-11-21T06:57:23;11.00;85.14
73665;DHT22;61964;52.052;4.474;2023-11-21T06:59:49;10.99;85.01
73665;DHT22;61964;52.052;4.474;2023-11-21T07:02:18;11.02;85.07
73665;DHT22;61964;52.052;4.474;2023-11-21T07:04:46;11.06;85.39
73665;DHT22;61964;52.052;4.474;2023-11-21T07:07:12;11.15;85.47
73665;DHT22;61964;52.052;4.474;2023-11-21T07:09:38;11.29;85.57
73665;DHT22;61964;52.052;4.474;2023-11-21T07:12:04;11.34;85.38
73665;DHT22;61964;52.052;4.474;2023-11-21T07:14:35;11.39;85.37
73665;DHT22;61964;52.052;4.474;2023-11-21T07:17:02;11.43;85.30
73665;DHT22;61964;52.052;4.474;2023-11-21T07:19:28;11.49;85.44
73665;DHT22;61964;52.052;4.474;2023-11-21T07:21:54;11.54;85.25
73665;DHT22;61964;52.052;4.474;2023-11-21T07:24:21;11.61;84.79
73665;DHT22;61964;52.052;4.474;2023-11-21T07:26:48;11.59;85.00
73665;DHT22;61964;52.052;4.474;2023-11-21T07:29:14;11.60;85.08
73665;DHT22;61964;52.052;4.474;2023-11-21T07:31:40;11.63;85.20
73665;DHT22;61964;52.052;4.474;2023-11-21T07:34:07;11.68;84.80
73665;DHT22;61964;52.052;4.474;2023-11-21T07:36:34;11.71;84.90
73665;DHT22;61964;52.052;4.474;2023-11-21T07:38:59;11.73;85.00
73665;DHT22;61964;52.052;4.474;2023-11-21T07:41:27;11.77;84.75
73665;DHT22;61964;52.052;4.474;2023-11-21T07:43:55;11.81;84.53
73665;DHT22;61964;52.052;4.474;2023-11-21T07:46:21;11.84;84.50
73665;DHT22;61964;52.052;4.474;2023-11-21T07:48:47;11.90;84.59
73665;DHT22;61964;52.052;4.474;2023-11-21T07:51:13;11.94;84.02
73665;DHT22;61964;52.052;4.474;2023-11-21T07:53:39;11.95;83.63
73665;DHT22;61964;52.052;4.474;2023-11-21T07:56:06;11.91;83.31
73665;DHT22;61964;52.052;4.474;2023-11-21T07:58:36;11.88;84.21
73665;DHT22;61964;52.052;4.474;2023-11-21T08:01:03;11.95;83.66
73665;DHT22;61964;52.052;4.474;2023-11-21T08:03:30;12.05;83.51
73665;DHT22;61964;52.052;4.474;2023-11-21T08:05:56;12.11;83.43
73665;DHT22;61964;52.052;4.474;2023-11-21T08:08:23;12.12;83.57
73665;DHT22;61964;52.052;4.474;2023-11-21T08:10:50;12.21;83.45
73665;DHT22;61964;52.052;4.474;2023-11-21T08:13:25;12.29;83.62
73665;DHT22;61964;52.052;4.474;2023-11-21T08:15:56;12.38;82.96
73665;DHT22;61964;52.052;4.474;2023-11-21T08:18:23;12.35;83.01
73665;DHT22;61964;52.052;4.474;2023-11-21T08:20:50;12.36;82.68
73665;DHT22;61964;52.052;4.474;2023-11-21T08:23:16;12.39;83.08
73665;DHT22;61964;52.052;4.474;2023-11-21T08:25:45;12.42;82.98
73665;DHT22;61964;52.052;4.474;2023-11-21T08:28:12;12.50;83.07
73665;DHT22;61964;52.052;4.474;2023-11-21T08:30:41;12.48;82.96
73665;DHT22;61964;52.052;4.474;2023-11-21T08:33:08;12.60;82.58
73665;DHT22;61964;52.052;4.474;2023-11-21T08:35:35;12.61;82.41
73665;DHT22;61964;52.052;4.474;2023-11-21T08:38:02;12.66;82.48
73665;DHT22;61964;52.052;4.474;2023-11-21T08:40:28;12.70;82.41
73665;DHT22;61964;52.052;4.474;2023-11-21T08:42:54;12.69;81.64
73665;DHT22;61964;52.052;4.474;2023-11-21T08:45:21;12.60;81.90
73665;DHT22;61964;52.052;4.474;2023-11-21T08:47:48;12.52;82.08
73665;DHT22;61964;52.052;4.474;2023-11-21T08:50:14;12.48;82.79
73665;DHT22;61964;52.052;4.474;2023-11-21T08:52:41;12.43;82.09
73665;DHT22;61964;52.052;4.474;2023-11-21T08:55:10;12.39;82.56
73665;DHT22;61964;52.052;4.474;2023-11-21T08:57:38;12.36;82.77
73665;DHT22;61964;52.052;4.474;2023-11-21T09:00:09;12.36;82.56
73665;DHT22;61964;52.052;4.474;2023-11-21T09:02:41;12.38;82.58
73665;DHT22;61964;52.052;4.474;2023-11-21T09:05:11;12.32;82.61
73665;DHT22;61964;52.052;4.474;2023-11-21T09:07:40;12.30;83.12
73665;DHT22;61964;52.052;4.474;2023-11-21T09:10:09;12.29;83.19
73665;DHT22;61964;52.052;4.474;2023-11-21T09:12:36;12.26;83.01
73665;DHT22;61964;52.052;4.474;2023-11-21T09:15:06;12.26;83.10
73665;DHT22;61964;52.052;4.474;2023-11-21T09:17:35;12.24;83.33
73665;DHT22;61964;52.052;4.474;2023-11-21T09:20:02;12.32;83.40
73665;DHT22;61964;52.052;4.474;2023-11-21T09:22:34;12.36;83.11
73665;DHT22;61964;52.052;4.474;2023-11-21T09:24:59;12.30;82.50
73665;DHT22;61964;52.052;4.474;2023-11-21T09:27:25;12.25;82.65
73665;DHT22;61964;52.052;4.474;2023-11-21T09:29:51;12.12;83.23
73665;DHT22;61964;52.052;4.474;2023-11-21T09:32:18;12.17;83.12
73665;DHT22;61964;52.052;4.474;2023-11-21T09:34:44;12.19;83.59
73665;DHT22;61964;52.052;4.474;2023-11-21T09:37:10;12.26;83.23
73665;DHT22;61964;52.052;4.474;2023-11-21T09:39:36;12.26;83.15
73665;DHT22;61964;52.052;4.474;2023-11-21T09:42:13;12.24;82.79
73665;DHT22;61964;52.052;4.474;2023-11-21T09:44:48;12.21;82.93
73665;DHT22;61964;52.052;4.474;2023-11-21T09:47:17;12.17;83.05
73665;DHT22;61964;52.052;4.474;2023-11-21T09:49:54;12.15;83.12
73665;DHT22;61964;52.052;4.474;2023-11-21T09:52:27;12.21;83.44
73665;DHT22;61964;52.052;4.474;2023-11-21T09:54:55;12.25;83.19
73665;DHT22;61964;52.052;4.474;2023-11-21T09:57:36;12.30;83.71
73665;DHT22;61964;52.052;4.474;2023-11-21T10:00:02;12.28;83.13
73665;DHT22;61964;52.052;4.474;2023-11-21T10:02:39;12.35;83.37
73665;DHT22;61964;52.052;4.474;2023-11-21T10:05:06;12.43;82.85
73665;DHT22;61964;52.052;4.474;2023-11-21T10:07:36;12.46;83.02
73665;DHT22;61964;52.052;4.474;2023-11-21T10:10:02;12.42;82.55
73665;DHT22;61964;52.052;4.474;2023-11-21T10:12:31;12.33;82.69
73665;DHT22;61964;52.052;4.474;2023-11-21T10:14:58;12.28;82.75
73665;DHT22;61964;52.052;4.474;2023-11-21T10:17:28;12.26;83.19
73665;DHT22;61964;52.052;4.474;2023-11-21T10:19:57;12.24;82.84
73665;DHT22;61964;52.052;4.474;2023-11-21T10:22:43;12.18;82.60
73665;DHT22;61964;52.052;4.474;2023-11-21T10:25:09;12.06;82.72
73665;DHT22;61964;52.052;4.474;2023-11-21T10:27:36;11.98;82.77
73665;DHT22;61964;52.052;4.474;2023-11-21T10:30:05;11.99;83.08
73665;DHT22;61964;52.052;4.474;2023-11-21T10:32:31;12.04;82.81
73665;DHT22;61964;52.052;4.474;2023-11-21T10:35:01;12.06;83.25
73665;DHT22;61964;52.052;4.474;2023-11-21T10:37:38;12.04;83.07
73665;DHT22;61964;52.052;4.474;2023-11-21T10:40:10;12.04;82.82
73665;DHT22;61964;52.052;4.474;2023-11-21T10:42:40;12.01;82.85
73665;DHT22;61964;52.052;4.474;2023-11-21T10:45:07;12.02;82.74
73665;DHT22;61964;52.052;4.474;2023-11-21T10:47:44;11.95;82.62
73665;DHT22;61964;52.052;4.474;2023-11-21T10:50:10;11.92;82.86
73665;DHT22;61964;52.052;4.474;2023-11-21T10:52:39;11.97;83.35
73665;DHT22;61964;52.052;4.474;2023-11-21T10:55:16;12.01;83.29
73665;DHT22;61964;52.052;4.474;2023-11-21T10:57:48;12.17;83.38
73665;DHT22;61964;52.052;4.474;2023-11-21T11:00:16;12.21;82.35
73665;DHT22;61964;52.052;4.474;2023-11-21T11:02:48;12.17;82.38
73665;DHT22;61964;52.052;4.474;2023-11-21T11:05:20;12.30;82.18
73665;DHT22;61964;52.052;4.474;2023-11-21T11:07:50;12.43;81.78
73665;DHT22;61964;52.052;4.474;2023-11-21T11:10:24;12.45;82.40
73665;DHT22;61964;52.052;4.474;2023-11-21T11:12:55;12.53;81.92
73665;DHT22;61964;52.052;4.474;2023-11-21T11:15:24;12.60;81.19
73665;DHT22;61964;52.052;4.474;2023-11-21T11:17:50;12.53;80.92
73665;DHT22;61964;52.052;4.474;2023-11-21T11:20:17;12.42;81.53
73665;DHT22;61964;52.052;4.474;2023-11-21T11:29:26;12.35;81.46
73665;DHT22;61964;52.052;4.474;2023-11-21T11:35:23;12.29;81.75
73665;DHT22;61964;52.052;4.474;2023-11-21T11:37:50;12.26;81.20
73665;DHT22;61964;52.052;4.474;2023-11-21T11:40:16;12.25;81.19
73665;DHT22;61964;52.052;4.474;2023-11-21T11:43:01;12.35;81.16
73665;DHT22;61964;52.052;4.474;2023-11-21T11:45:34;12.45;81.28
73665;DHT22;61964;52.052;4.474;2023-11-21T11:48:01;12.39;81.06
73665;DHT22;61964;52.052;4.474;2023-11-21T11:50:29;12.46;81.25
73665;DHT22;61964;52.052;4.474;2023-11-21T11:53:12;12.55;79.86
73665;DHT22;61964;52.052;4.474;2023-11-21T11:55:39;12.55;79.57
73665;DHT22;61964;52.052;4.474;2023-11-21T11:58:06;12.52;79.71
73665;DHT22;61964;52.052;4.474;2023-11-21T12:00:52;12.24;80.18
73665;DHT22;61964;52.052;4.474;2023-11-21T12:03:20;12.15;80.79
73665;DHT22;61964;52.052;4.474;2023-11-21T12:05:46;12.14;80.96
73665;DHT22;61964;52.052;4.474;2023-11-21T12:08:12;12.25;80.14
73665;DHT22;61964;52.052;4.474;2023-11-21T12:10:39;12.29;80.40
73665;DHT22;61964;52.052;4.474;2023-11-21T12:13:10;12.25;80.14
73665;DHT22;61964;52.052;4.474;2023-11-21T12:15:38;12.36;80.45
73665;DHT22;61964;52.052;4.474;2023-11-21T12:18:04;12.40;80.22
73665;DHT22;61964;52.052;4.474;2023-11-21T12:20:31;12.26;79.97
73665;DHT22;61964;52.052;4.474;2023-11-21T12:22:59;12.19;80.52
73665;DHT22;61964;52.052;4.474;2023-11-21T12:25:27;12.30;80.64
73665;DHT22;61964;52.052;4.474;2023-11-21T12:27:55;12.46;79.81
73665;DHT22;61964;52.052;4.474;2023-11-21T12:30:30;12.38;79.80
73665;DHT22;61964;52.052;4.474;2023-11-21T12:32:59;12.30;80.37
73665;DHT22;61964;52.052;4.474;2023-11-21T12:35:31;12.18;80.16
73665;DHT22;61964;52.052;4.474;2023-11-21T12:38:00;12.24;80.69
73665;DHT22;61964;52.052;4.474;2023-11-21T12:40:28;12.28;79.87
73665;DHT22;61964;52.052;4.474;2023-11-21T12:42:56;12.29;80.54
73665;DHT22;61964;52.052;4.474;2023-11-21T12:48:10;12.21;80.14
73665;DHT22;61964;52.052;4.474;2023-11-21T12:50:38;12.29;79.80
73665;DHT22;61964;52.052;4.474;2023-11-21T12:53:09;12.42;79.41
73665;DHT22;61964;52.052;4.474;2023-11-21T12:55:36;12.35;79.11
73665;DHT22;61964;52.052;4.474;2023-11-21T12:58:04;12.14;79.07
73665;DHT22;61964;52.052;4.474;2023-11-21T13:00:57;12.18;79.57
73665;DHT22;61964;52.052;4.474;2023-11-21T13:03:25;12.26;79.47
73665;DHT22;61964;52.052;4.474;2023-11-21T13:05:53;12.30;79.29
73665;DHT22;61964;52.052;4.474;2023-11-21T13:08:25;12.40;79.40
73665;DHT22;61964;52.052;4.474;2023-11-21T13:10:56;12.50;79.38
73665;DHT22;61964;52.052;4.474;2023-11-21T13:13:23;12.56;78.93
73665;DHT22;61964;52.052;4.474;2023-11-21T13:15:54;12.59;79.73
73665;DHT22;61964;52.052;4.474;2023-11-21T13:18:24;12.60;78.69
73665;DHT22;61964;52.052;4.474;2023-11-21T13:20:53;12.57;78.41
73665;DHT22;61964;52.052;4.474;2023-11-21T13:23:20;12.55;78.43
73665;DHT22;61964;52.052;4.474;2023-11-21T13:25:46;12.53;79.27
73665;DHT22;61964;52.052;4.474;2023-11-21T13:28:13;12.46;79.07
73665;DHT22;61964;52.052;4.474;2023-11-21T13:30:41;12.49;79.46
73665;DHT22;61964;52.052;4.474;2023-11-21T13:33:08;12.46;78.95
73665;DHT22;61964;52.052;4.474;2023-11-21T13:35:37;12.32;78.16
73665;DHT22;61964;52.052;4.474;2023-11-21T13:38:11;12.30;78.85
73665;DHT22;61964;52.052;4.474;2023-11-21T13:40:39;12.25;78.96
73665;DHT22;61964;52.052;4.474;2023-11-21T13:43:13;12.14;78.70
73665;DHT22;61964;52.052;4.474;2023-11-21T13:45:43;12.05;79.30
73665;DHT22;61964;52.052;4.474;2023-11-21T13:48:11;12.09;79.40
73665;DHT22;61964;52.052;4.474;2023-11-21T13:50:40;12.14;79.87
73665;DHT22;61964;52.052;4.474;2023-11-21T13:53:14;12.15;79.13
73665;DHT22;61964;52.052;4.474;2023-11-21T13:55:51;12.08;79.26
73665;DHT22;61964;52.052;4.474;2023-11-21T13:58:25;12.04;79.87
73665;DHT22;61964;52.052;4.474;2023-11-21T14:01:10;12.05;80.40
73665;DHT22;61964;52.052;4.474;2023-11-21T14:04:03;12.15;79.96
73665;DHT22;61964;52.052;4.474;2023-11-21T14:06:50;12.21;79.67
73665;DHT22;61964;52.052;4.474;2023-11-21T14:09:22;12.18;79.10
73665;DHT22;61964;52.052;4.474;2023-11-21T14:11:54;12.09;79.03
73665;DHT22;61964;52.052;4.474;2023-11-21T14:14:24;12.06;79.56
73665;DHT22;61964;52.052;4.474;2023-11-21T14:16:56;12.01;79.36
73665;DHT22;61964;52.052;4.474;2023-11-21T14:19:22;12.06;80.20
73665;DHT22;61964;52.052;4.474;2023-11-21T14:21:52;12.14;79.31
73665;DHT22;61964;52.052;4.474;2023-11-21T14:24:18;12.04;79.89
73665;DHT22;61964;52.052;4.474;2023-11-21T14:26:45;12.05;79.90
73665;DHT22;61964;52.052;4.474;2023-11-21T14:29:13;12.09;79.68
73665;DHT22;61964;52.052;4.474;2023-11-21T14:31:41;11.95;79.79
73665;DHT22;61964;52.052;4.474;2023-11-21T14:34:07;11.85;79.83
73665;DHT22;61964;52.052;4.474;2023-11-21T14:36:34;11.84;80.50
73665;DHT22;61964;52.052;4.474;2023-11-21T14:39:03;11.82;80.08
73665;DHT22;61964;52.052;4.474;2023-11-21T14:41:32;11.61;80.01
73665;DHT22;61964;52.052;4.474;2023-11-21T14:44:01;11.64;80.79
73665;DHT22;61964;52.052;4.474;2023-11-21T14:46:29;11.61;80.15
73665;DHT22;61964;52.052;4.474;2023-11-21T14:48:55;11.47;80.33
73665;DHT22;61964;52.052;4.474;2023-11-21T14:51:47;11.40;80.26
73665;DHT22;61964;52.052;4.474;2023-11-21T14:54:27;11.31;80.66
73665;DHT22;61964;52.052;4.474;2023-11-21T14:57:13;11.27;80.42
73665;DHT22;61964;52.052;4.474;2023-11-21T14:59:48;11.26;80.86
73665;DHT22;61964;52.052;4.474;2023-11-21T15:02:23;11.23;80.34
73665;DHT22;61964;52.052;4.474;2023-11-21T15:05:10;11.22;80.12
73665;DHT22;61964;52.052;4.474;2023-11-21T15:07:42;11.22;80.57
73665;DHT22;61964;52.052;4.474;2023-11-21T15:10:09;11.22;80.10
73665;DHT22;61964;52.052;4.474;2023-11-21T15:12:40;11.20;80.33
73665;DHT22;61964;52.052;4.474;2023-11-21T15:15:07;11.23;79.82
73665;DHT22;61964;52.052;4.474;2023-11-21T15:17:36;11.16;79.24
73665;DHT22;61964;52.052;4.474;2023-11-21T15:20:03;11.13;79.92
73665;DHT22;61964;52.052;4.474;2023-11-21T15:22:32;11.06;79.82
73665;DHT22;61964;52.052;4.474;2023-11-21T15:24:58;11.02;79.89
73665;DHT22;61964;52.052;4.474;2023-11-21T15:27:25;11.10;80.38
73665;DHT22;61964;52.052;4.474;2023-11-21T15:29:52;11.13;79.67
73665;DHT22;61964;52.052;4.474;2023-11-21T15:32:19;11.13;79.41
73665;DHT22;61964;52.052;4.474;2023-11-21T15:34:45;11.10;80.18
73665;DHT22;61964;52.052;4.474;2023-11-21T15:37:12;10.99;80.08
73665;DHT22;61964;52.052;4.474;2023-11-21T15:39:38;10.96;80.31
73665;DHT22;61964;52.052;4.474;2023-11-21T15:42:05;10.99;79.93
73665;DHT22;61964;52.052;4.474;2023-11-21T15:44:33;11.02;80.17
73665;DHT22;61964;52.052;4.474;2023-11-21T15:46:59;11.03;79.96
73665;DHT22;61964;52.052;4.474;2023-11-21T15:49:25;10.99;80.37
73665;DHT22;61964;52.052;4.474;2023-11-21T15:51:53;11.06;80.15
73665;DHT22;61964;52.052;4.474;2023-11-21T15:54:21;10.93;80.23
73665;DHT22;61964;52.052;4.474;2023-11-21T15:56:48;10.91;80.04